createdAt,value
2022-08-28T00:02:06.255Z,97500.88
2022-08-28T00:04:40.642Z,97502.53
2022-08-28T00:07:07.542Z,97489.22
2022-08-28T00:09:34.209Z,97495.50
2022-08-28T00:12:02.046Z,97491.94
2022-08-28T00:14:29.141Z,97488.41
2022-08-28T00:16:56.733Z,97482.47
2022-08-28T00:19:24.314Z,97478.13
2022-08-28T00:21:51.859Z,97478.13
2022-08-28T00:24:18.765Z,97478.69
2022-08-28T00:27:04.181Z,97482.78
2022-08-28T00:29:31.343Z,97472.47
2022-08-28T00:31:58.887Z,97484.16
2022-08-28T00:34:33.623Z,97486.34
2022-08-28T00:37:01.043Z,97481.44
2022-08-28T00:39:27.789Z,97473.84
2022-08-28T00:41:57.855Z,97476.03
2022-08-28T00:44:27.227Z,97478.19
2022-08-28T00:46:56.407Z,97466.00
2022-08-28T00:49:28.062Z,97463.53
2022-08-28T00:52:12.432Z,97465.97
2022-08-28T00:54:44.174Z,97461.91
2022-08-28T00:57:27.130Z,97458.06
2022-08-28T00:59:54.444Z,97453.19
2022-08-28T01:02:21.518Z,97460.50
2022-08-28T01:04:50.065Z,97459.72
2022-08-28T01:07:17.943Z,97463.22
2022-08-28T01:09:51.141Z,97467.31
2022-08-28T01:12:22.394Z,97469.75
2022-08-28T01:14:52.351Z,97461.59
2022-08-28T01:17:23.781Z,97459.44
2022-08-28T01:19:58.469Z,97470.31
2022-08-28T01:22:42.455Z,97468.94
2022-08-28T01:25:15.587Z,97473.84
2022-08-28T01:27:42.693Z,97480.38
2022-08-28T01:33:37.935Z,97467.34
2022-08-28T01:36:10.844Z,97459.97
2022-08-28T01:38:38.955Z,97466.22
2022-08-28T01:41:06.096Z,97469.72
2022-08-28T01:43:33.067Z,97468.34
2022-08-28T01:46:04.588Z,97476.25
2022-08-28T01:48:33.631Z,97467.78
2022-08-28T01:51:17.961Z,97467.53
2022-08-28T01:53:47.849Z,97476.50
2022-08-28T01:56:17.866Z,97470.81
2022-08-28T01:58:44.857Z,97480.84
2022-08-28T02:01:17.077Z,97477.88
2022-08-28T02:03:44.303Z,97469.50
2022-08-28T02:06:12.174Z,97470.56
2022-08-28T02:08:38.935Z,97461.91
2022-08-28T02:11:07.662Z,97469.78
2022-08-28T02:13:36.595Z,97460.81
2022-08-28T02:16:06.517Z,97466.53
2022-08-28T02:18:33.454Z,97451.56
2022-08-28T02:21:00.183Z,97456.44
2022-08-28T02:23:27.459Z,97460.78
2022-08-28T02:25:54.206Z,97464.06
2022-08-28T02:28:21.093Z,97458.88
2022-08-28T02:30:47.855Z,97461.31
2022-08-28T02:33:16.330Z,97453.44
2022-08-28T02:35:43.648Z,97459.72
2022-08-28T02:38:11.555Z,97447.75
2022-08-28T02:40:41.366Z,97452.13
2022-08-28T02:43:08.114Z,97452.69
2022-08-28T02:45:35.170Z,97450.53
2022-08-28T02:48:02.221Z,97447.31
2022-08-28T02:50:30.070Z,97446.78
2022-08-28T02:52:56.688Z,97450.03
2022-08-28T02:55:24.970Z,97462.25
2022-08-28T02:57:52.954Z,97453.28
2022-08-28T03:00:24.553Z,97469.03
2022-08-28T03:02:52.216Z,97464.69
2022-08-28T03:05:24.561Z,97474.47
2022-08-28T03:07:53.617Z,97460.63
2022-08-28T03:10:21.443Z,97468.50
2022-08-28T03:12:50.662Z,97472.03
2022-08-28T03:15:18.300Z,97470.94
2022-08-28T03:17:45.001Z,97471.75
2022-08-28T03:20:15.966Z,97471.19
2022-08-28T03:23:01.429Z,97475.00
2022-08-28T03:25:29.242Z,97470.13
2022-08-28T03:27:56.591Z,97468.22
2022-08-28T03:30:24.506Z,97473.63
2022-08-28T03:34:41.172Z,97477.16
2022-08-28T03:37:07.906Z,97473.94
2022-08-28T03:39:35.131Z,97479.06
2022-08-28T03:42:01.952Z,97476.09
2022-08-28T03:44:28.711Z,97475.53
2022-08-28T03:46:55.486Z,97471.47
2022-08-28T03:49:22.106Z,97479.91
2022-08-28T03:51:50.088Z,97471.75
2022-08-28T03:54:18.835Z,97477.16
2022-08-28T03:56:45.574Z,97481.50
2022-08-28T03:59:12.657Z,97482.34
2022-08-28T04:01:40.634Z,97475.53
2022-08-28T04:04:07.680Z,97481.22
2022-08-28T04:06:34.508Z,97492.09
2022-08-28T04:09:03.606Z,97484.50
2022-08-28T04:11:30.444Z,97489.34
2022-08-28T04:13:58.060Z,97492.09
2022-08-28T04:16:25.097Z,97484.50
2022-08-28T04:18:51.927Z,97489.38
2022-08-28T04:21:21.581Z,97486.94
2022-08-28T04:23:48.530Z,97496.19
2022-08-28T04:26:20.996Z,97498.06
2022-08-28T04:28:48.865Z,97494.81
2022-08-28T04:31:17.401Z,97505.13
2022-08-28T04:33:44.294Z,97502.97
2022-08-28T04:36:14.837Z,97507.59
2022-08-28T04:38:44.143Z,97513.28
2022-08-28T04:41:14.153Z,97505.38
2022-08-28T04:43:40.974Z,97505.91
2022-08-28T04:46:11.486Z,97506.13
2022-08-28T04:48:39.748Z,97506.38
2022-08-28T04:51:12.968Z,97512.31
2022-08-28T04:53:40.082Z,97510.09
2022-08-28T04:56:09.348Z,97507.59
2022-08-28T04:58:37.255Z,97507.28
2022-08-28T05:01:11.304Z,97511.28
2022-08-28T05:03:38.361Z,97513.13
2022-08-28T05:06:05.977Z,97508.34
2022-08-28T05:08:32.792Z,97510.47
2022-08-28T05:11:10.892Z,97504.56
2022-08-28T05:13:38.166Z,97508.44
2022-08-28T05:16:05.103Z,97508.94
2022-08-28T05:18:32.253Z,97496.78
2022-08-28T05:20:59.820Z,97501.19
2022-08-28T05:23:26.569Z,97512.16
2022-08-28T05:25:56.243Z,97507.22
2022-08-28T05:28:26.538Z,97505.53
2022-08-28T05:31:10.472Z,97506.94
2022-08-28T05:35:40.967Z,97514.69
2022-08-28T05:38:10.150Z,97511.75
2022-08-28T05:40:45.601Z,97521.88
2022-08-28T05:43:15.444Z,97523.75
2022-08-28T05:45:42.644Z,97528.03
2022-08-28T05:48:09.786Z,97526.50
2022-08-28T05:50:43.767Z,97527.19
2022-08-28T05:53:14.214Z,97528.03
2022-08-28T05:55:43.830Z,97533.28
2022-08-28T05:58:32.020Z,97526.03
2022-08-28T06:01:10.538Z,97526.59
2022-08-28T06:03:38.437Z,97531.97
2022-08-28T06:06:05.942Z,97530.59
2022-08-28T06:08:32.846Z,97537.97
2022-08-28T06:11:01.871Z,97538.69
2022-08-28T06:13:30.614Z,97543.94
2022-08-28T06:15:57.416Z,97545.81
2022-08-28T06:18:25.474Z,97539.81
2022-08-28T06:20:53.204Z,97544.63
2022-08-28T06:23:23.894Z,97530.84
2022-08-28T06:25:52.065Z,97537.06
2022-08-28T06:28:24.285Z,97539.31
2022-08-28T06:31:18.384Z,97534.38
2022-08-28T06:33:40.282Z,97536.09
2022-08-28T06:36:07.944Z,97539.56
2022-08-28T06:38:35.277Z,97536.19
2022-08-28T06:41:01.860Z,97540.22
2022-08-28T06:43:29.576Z,97533.84
2022-08-28T06:45:57.845Z,97535.13
2022-08-28T06:48:27.777Z,97531.91
2022-08-28T06:50:56.284Z,97535.53
2022-08-28T06:53:26.383Z,97533.94
2022-08-28T06:56:18.445Z,97538.75
2022-08-28T06:58:54.463Z,97539.91
2022-08-28T07:01:24.517Z,97538.63
2022-08-28T07:03:54.099Z,97537.88
2022-08-28T07:06:22.054Z,97547.09
2022-08-28T07:08:49.451Z,97544.19
2022-08-28T07:11:26.028Z,97553.78
2022-08-28T07:13:53.892Z,97547.72
2022-08-28T07:16:23.069Z,97549.22
2022-08-28T07:18:49.967Z,97549.25
2022-08-28T07:21:16.874Z,97552.72
2022-08-28T07:23:45.618Z,97543.53
2022-08-28T07:26:15.460Z,97552.84
2022-08-28T07:28:42.221Z,97539.69
2022-08-28T07:31:15.670Z,97532.81
2022-08-28T07:36:35.078Z,97545.03
2022-08-28T07:39:01.886Z,97547.16
2022-08-28T07:41:30.901Z,97548.69
2022-08-28T07:44:16.800Z,97542.16
2022-08-28T07:46:44.260Z,97538.31
2022-08-28T07:49:11.410Z,97546.19
2022-08-28T07:51:38.169Z,97543.72
2022-08-28T07:54:05.590Z,97537.25
2022-08-28T07:56:33.220Z,97537.16
2022-08-28T07:59:01.733Z,97529.41
2022-08-28T08:01:30.677Z,97529.56
2022-08-28T08:04:01.322Z,97532.03
2022-08-28T08:06:33.842Z,97531.41
2022-08-28T08:09:01.185Z,97534.13
2022-08-28T08:11:27.927Z,97535.00
2022-08-28T08:14:04.691Z,97534.41
2022-08-28T08:16:41.771Z,97542.72
2022-08-28T08:19:10.399Z,97534.41
2022-08-28T08:21:37.949Z,97539.25
2022-08-28T08:24:05.156Z,97545.00
2022-08-28T08:26:33.234Z,97546.78
2022-08-28T08:29:03.656Z,97541.94
2022-08-28T08:31:32.821Z,97547.31
2022-08-28T08:34:02.569Z,97546.59
2022-08-28T08:36:32.412Z,97545.34
2022-08-28T08:39:00.923Z,97549.00
2022-08-28T08:41:51.265Z,97547.38
2022-08-28T08:44:38.895Z,97538.81
2022-08-28T08:47:47.431Z,97540.50
2022-08-28T08:50:35.556Z,97539.75
2022-08-28T08:53:28.474Z,97547.97
2022-08-28T08:55:57.986Z,97534.53
2022-08-28T08:58:41.249Z,97534.16
2022-08-28T09:01:25.845Z,97540.41
2022-08-28T09:03:58.397Z,97537.28
2022-08-28T09:06:40.991Z,97538.63
2022-08-28T09:09:34.010Z,97539.28
2022-08-28T09:12:00.597Z,97545.28
2022-08-28T09:14:34.276Z,97537.69
2022-08-28T09:17:01.841Z,97541.16
2022-08-28T09:19:29.612Z,97535.22
2022-08-28T09:21:56.803Z,97536.75
2022-08-28T09:24:31.932Z,97539.41
2022-08-28T09:27:11.065Z,97539.63
2022-08-28T09:29:44.784Z,97546.75
2022-08-28T09:32:35.516Z,97545.03
2022-08-28T09:37:37.228Z,97546.00
2022-08-28T09:40:19.545Z,97546.97
2022-08-28T09:43:18.937Z,97544.50
2022-08-28T09:45:52.798Z,97537.84
2022-08-28T09:48:43.837Z,97526.22
2022-08-28T09:51:22.740Z,97534.19
2022-08-28T09:53:52.323Z,97525.13
2022-08-28T09:56:24.592Z,97531.28
2022-08-28T09:58:57.957Z,97526.66
2022-08-28T10:01:44.987Z,97528.31
2022-08-28T10:04:18.256Z,97523.91
2022-08-28T10:06:53.124Z,97521.88
2022-08-28T10:09:22.691Z,97528.25
2022-08-28T10:12:07.531Z,97526.16
2022-08-28T10:14:49.775Z,97516.88
2022-08-28T10:17:19.833Z,97514.66
2022-08-28T10:20:00.427Z,97518.94
2022-08-28T10:23:00.963Z,97515.97
2022-08-28T10:25:55.302Z,97512.00
2022-08-28T10:28:33.449Z,97511.63
2022-08-28T10:31:14.745Z,97515.47
2022-08-28T10:34:04.916Z,97509.81
2022-08-28T10:36:35.134Z,97515.00
2022-08-28T10:39:17.046Z,97505.41
2022-08-28T10:41:48.737Z,97514.59
2022-08-28T10:44:23.038Z,97508.06
2022-08-28T10:46:53.940Z,97511.38
2022-08-28T10:49:26.479Z,97507.28
2022-08-28T10:51:59.764Z,97502.84
2022-08-28T10:54:30.256Z,97510.28
2022-08-28T10:57:05.602Z,97506.13
2022-08-28T10:59:34.703Z,97516.34
2022-08-28T11:02:12.915Z,97519.38
2022-08-28T11:04:40.013Z,97520.47
2022-08-28T11:07:11.802Z,97512.09
2022-08-28T11:09:41.427Z,97512.56
2022-08-28T11:12:22.598Z,97519.28
2022-08-28T11:14:51.296Z,97525.78
2022-08-28T11:17:30.667Z,97524.13
2022-08-28T11:20:19.278Z,97523.38
2022-08-28T11:23:15.688Z,97511.34
2022-08-28T11:25:54.846Z,97515.13
2022-08-28T11:28:25.246Z,97517.47
2022-08-28T11:31:01.442Z,97514.31
2022-08-28T11:33:43.493Z,97503.16
2022-08-28T11:38:55.855Z,97511.00
2022-08-28T11:41:24.310Z,97511.72
2022-08-28T11:44:13.524Z,97502.78
2022-08-28T11:46:48.464Z,97504.81
2022-08-28T11:49:27.326Z,97501.28
2022-08-28T11:52:18.151Z,97492.53
2022-08-28T11:54:50.908Z,97496.47
2022-08-28T11:57:45.542Z,97486.81
2022-08-28T12:00:26.982Z,97485.13
2022-08-28T12:03:31.483Z,97476.91
2022-08-28T12:06:00.658Z,97484.81
2022-08-28T12:08:46.078Z,97484.69
2022-08-28T12:11:42.122Z,97483.31
2022-08-28T12:14:29.720Z,97480.34
2022-08-28T12:16:59.345Z,97481.03
2022-08-28T12:19:51.251Z,97477.94
2022-08-28T12:22:26.861Z,97475.53
2022-08-28T12:25:02.311Z,97477.00
2022-08-28T12:27:31.923Z,97470.38
2022-08-28T12:30:02.086Z,97471.34
2022-08-28T12:32:48.777Z,97473.22
2022-08-28T12:35:19.145Z,97460.50
2022-08-28T12:37:52.118Z,97461.28
2022-08-28T12:40:22.058Z,97474.38
2022-08-28T12:42:55.023Z,97465.09
2022-08-28T12:45:35.398Z,97468.16
2022-08-28T12:48:11.101Z,97470.00
2022-08-28T12:50:39.627Z,97467.19
2022-08-28T12:53:13.442Z,97468.28
2022-08-28T12:55:40.796Z,97460.50
2022-08-28T12:58:28.030Z,97462.53
2022-08-28T13:00:58.553Z,97463.31
2022-08-28T13:03:25.790Z,97464.22
2022-08-28T13:05:58.892Z,97452.75
2022-08-28T13:08:25.513Z,97461.28
2022-08-28T13:10:52.853Z,97456.28
2022-08-28T13:13:40.180Z,97466.81
2022-08-28T13:16:12.989Z,97462.97
2022-08-28T13:18:42.533Z,97460.03
2022-08-28T13:21:33.036Z,97458.66
2022-08-28T13:24:21.643Z,97456.94
2022-08-28T13:27:06.514Z,97458.09
2022-08-28T13:29:33.997Z,97454.34
2022-08-28T13:32:04.407Z,97462.53
2022-08-28T13:34:34.019Z,97455.75
2022-08-28T13:39:37.873Z,97456.38
2022-08-28T13:42:12.665Z,97465.84
2022-08-28T13:44:53.942Z,97468.41
2022-08-28T13:47:20.612Z,97475.03
2022-08-28T13:49:47.198Z,97465.94
2022-08-28T13:52:14.260Z,97477.38
2022-08-28T13:54:43.482Z,97473.72
2022-08-28T13:57:10.571Z,97468.34
2022-08-28T13:59:37.149Z,97474.88
2022-08-28T14:02:27.204Z,97466.81
2022-08-28T14:04:53.860Z,97471.34
2022-08-28T14:07:23.016Z,97483.03
2022-08-28T14:09:55.552Z,97492.47
2022-08-28T14:12:22.955Z,97500.47
2022-08-28T14:14:58.192Z,97502.28
2022-08-28T14:17:24.799Z,97505.81
2022-08-28T14:19:51.359Z,97517.91
2022-08-28T14:22:18.583Z,97523.13
2022-08-28T14:24:45.181Z,97527.69
2022-08-28T14:27:11.748Z,97523.53
2022-08-28T14:29:38.377Z,97524.63
2022-08-28T14:32:05.534Z,97520.19
2022-08-28T14:34:32.283Z,97523.00
2022-08-28T14:36:59.023Z,97532.16
2022-08-28T14:39:26.991Z,97533.81
2022-08-28T14:41:54.873Z,97533.19
2022-08-28T14:44:23.288Z,97538.06
2022-08-28T14:46:50.379Z,97536.63
2022-08-28T14:49:19.387Z,97542.81
2022-08-28T14:51:46.926Z,97530.88
2022-08-28T14:54:15.997Z,97535.44
2022-08-28T14:56:45.619Z,97536.09
2022-08-28T14:59:18.394Z,97544.69
2022-08-28T15:01:46.651Z,97539.88
2022-08-28T15:04:17.027Z,97543.47
2022-08-28T15:06:44.090Z,97539.59
2022-08-28T15:09:12.415Z,97546.41
2022-08-28T15:11:39.679Z,97540.94
2022-08-28T15:14:06.748Z,97542.41
2022-08-28T15:16:36.791Z,97548.72
2022-08-28T15:19:04.275Z,97546.97
2022-08-28T15:21:38.461Z,97549.22
2022-08-28T15:24:06.452Z,97554.25
2022-08-28T15:26:33.665Z,97551.19
2022-08-28T15:29:04.249Z,97551.78
2022-08-28T15:31:43.131Z,97555.31
2022-08-28T15:34:13.579Z,97549.97
2022-08-28T15:36:41.857Z,97554.47
2022-08-28T15:40:54.569Z,97551.34
2022-08-28T15:43:21.311Z,97548.38
2022-08-28T15:45:48.193Z,97550.28
2022-08-28T15:48:14.917Z,97554.59
2022-08-28T15:50:41.742Z,97555.53
2022-08-28T15:53:09.597Z,97554.56
2022-08-28T15:55:36.815Z,97554.56
2022-08-28T15:58:08.809Z,97549.41
2022-08-28T16:00:41.043Z,97556.50
2022-08-28T16:03:07.653Z,97552.78
2022-08-28T16:05:39.631Z,97548.69
2022-08-28T16:08:07.586Z,97543.22
2022-08-28T16:10:34.189Z,97550.47
2022-08-28T16:13:03.290Z,97550.78
2022-08-28T16:15:30.203Z,97555.47
2022-08-28T16:17:56.841Z,97553.69
2022-08-28T16:20:24.480Z,97547.00
2022-08-28T16:22:51.871Z,97553.44
2022-08-28T16:25:18.553Z,97557.44
2022-08-28T16:27:45.091Z,97555.97
2022-08-28T16:30:15.587Z,97558.50
2022-08-28T16:32:42.637Z,97553.09
2022-08-28T16:35:15.035Z,97553.44
2022-08-28T16:37:42.291Z,97548.59
2022-08-28T16:40:09.786Z,97556.28
2022-08-28T16:42:36.463Z,97547.38
2022-08-28T16:45:04.466Z,97540.91
2022-08-28T16:47:33.301Z,97546.19
2022-08-28T16:50:02.504Z,97547.44
2022-08-28T16:52:29.152Z,97545.63
2022-08-28T16:54:55.760Z,97546.06
2022-08-28T16:57:22.748Z,97542.66
2022-08-28T16:59:53.056Z,97553.41
2022-08-28T17:02:26.641Z,97542.25
2022-08-28T17:04:55.558Z,97553.84
2022-08-28T17:07:22.209Z,97556.41
2022-08-28T17:09:48.803Z,97557.00
2022-08-28T17:12:18.554Z,97554.88
2022-08-28T17:14:45.243Z,97550.81
2022-08-28T17:17:11.902Z,97555.63
2022-08-28T17:19:39.308Z,97559.78
2022-08-28T17:22:27.082Z,97559.56
2022-08-28T17:24:54.530Z,97564.84
2022-08-28T17:27:22.287Z,97575.28
2022-08-28T17:29:49.584Z,97577.53
2022-08-28T17:32:16.354Z,97582.81
2022-08-28T17:34:42.962Z,97582.28
2022-08-28T17:37:11.072Z,97591.94
2022-08-28T17:41:41.082Z,97600.16
2022-08-28T17:44:08.868Z,97598.03
2022-08-28T17:46:38.062Z,97608.47
2022-08-28T17:49:06.501Z,97609.88
2022-08-28T17:51:43.440Z,97608.88
2022-08-28T17:54:16.900Z,97610.59
2022-08-28T17:56:43.944Z,97602.47
2022-08-28T17:59:12.019Z,97609.09
2022-08-28T18:01:39.036Z,97610.78
2022-08-28T18:04:06.141Z,97612.00
2022-08-28T18:06:33.439Z,97601.75
2022-08-28T18:09:00.702Z,97613.31
2022-08-28T18:11:28.476Z,97615.00
2022-08-28T18:13:57.726Z,97625.75
2022-08-28T18:16:30.401Z,97625.50
2022-08-28T18:18:58.939Z,97628.84
2022-08-28T18:21:25.713Z,97629.94
2022-08-28T18:23:52.557Z,97625.06
2022-08-28T18:26:21.237Z,97626.00
2022-08-28T18:28:53.563Z,97629.00
2022-08-28T18:31:21.710Z,97618.75
2022-08-28T18:33:48.810Z,97622.09
2022-08-28T18:36:24.705Z,97623.50
2022-08-28T18:38:52.271Z,97629.78
2022-08-28T18:41:20.778Z,97632.00
2022-08-28T18:43:48.969Z,97622.47
2022-08-28T18:46:16.030Z,97628.75
2022-08-28T18:48:46.916Z,97621.16
2022-08-28T18:51:13.748Z,97620.34
2022-08-28T18:53:43.207Z,97616.88
2022-08-28T18:56:10.234Z,97618.81
2022-08-28T18:58:40.522Z,97617.47
2022-08-28T19:01:08.706Z,97617.47
2022-08-28T19:03:35.669Z,97616.13
2022-08-28T19:06:02.484Z,97617.78
2022-08-28T19:08:29.326Z,97620.00
2022-08-28T19:11:07.840Z,97617.03
2022-08-28T19:13:44.701Z,97618.97
2022-08-28T19:16:20.890Z,97621.97
2022-08-28T19:18:52.917Z,97617.13
2022-08-28T19:21:23.022Z,97626.41
2022-08-28T19:24:01.268Z,97611.66
2022-08-28T19:26:28.850Z,97625.91
2022-08-28T19:29:04.861Z,97625.09
2022-08-28T19:31:33.243Z,97625.09
2022-08-28T19:34:05.976Z,97611.44
2022-08-28T19:36:35.937Z,97620.22
2022-08-28T19:42:37.866Z,97624.44
2022-08-28T19:45:08.549Z,97622.59
2022-08-28T19:47:35.733Z,97626.44
2022-08-28T19:50:03.351Z,97630.56
2022-08-28T19:52:30.102Z,97623.47
2022-08-28T19:54:56.750Z,97627.63
2022-08-28T19:57:23.332Z,97631.72
2022-08-28T19:59:49.968Z,97624.66
2022-08-28T20:02:16.593Z,97627.97
2022-08-28T20:04:43.269Z,97634.53
2022-08-28T20:07:10.020Z,97635.13
2022-08-28T20:09:36.701Z,97646.31
2022-08-28T20:12:03.801Z,97639.31
2022-08-28T20:14:30.435Z,97635.25
2022-08-28T20:16:58.358Z,97637.75
2022-08-28T20:19:25.000Z,97636.44
2022-08-28T20:21:51.563Z,97639.44
2022-08-28T20:24:22.227Z,97645.19
2022-08-28T20:26:49.534Z,97652.59
2022-08-28T20:29:17.320Z,97641.44
2022-08-28T20:31:47.928Z,97650.72
2022-08-28T20:34:17.420Z,97654.03
2022-08-28T20:36:44.178Z,97646.13
2022-08-28T20:39:10.838Z,97653.59
2022-08-28T20:41:40.972Z,97661.78
2022-08-28T20:44:10.315Z,97654.44
2022-08-28T20:46:40.933Z,97661.09
2022-08-28T20:49:10.050Z,97654.56
2022-08-28T20:51:55.404Z,97651.31
2022-08-28T20:54:42.430Z,97648.88
2022-08-28T20:57:12.548Z,97647.28
2022-08-28T20:59:40.970Z,97651.91
2022-08-28T21:02:14.171Z,97652.19
2022-08-28T21:04:42.815Z,97655.47
2022-08-28T21:07:10.775Z,97649.47
2022-08-28T21:10:01.389Z,97650.84
2022-08-28T21:12:24.843Z,97651.69
2022-08-28T21:14:52.954Z,97650.03
2022-08-28T21:17:29.072Z,97654.69
2022-08-28T21:19:57.203Z,97664.28
2022-08-28T21:22:23.770Z,97657.47
2022-08-28T21:24:50.363Z,97652.38
2022-08-28T21:27:18.688Z,97653.47
2022-08-28T21:29:46.151Z,97660.59
2022-08-28T21:32:13.103Z,97660.13
2022-08-28T21:34:39.937Z,97664.50
2022-08-28T21:37:06.657Z,97665.03
2022-08-28T21:39:33.505Z,97664.50
2022-08-28T21:43:45.842Z,97659.91
2022-08-28T21:46:16.256Z,97669.44
2022-08-28T21:48:47.223Z,97668.91
2022-08-28T21:51:36.290Z,97671.66
2022-08-28T21:54:06.315Z,97674.38
2022-08-28T21:56:33.207Z,97677.63
2022-08-28T21:59:00.112Z,97674.38
2022-08-28T22:01:27.631Z,97670.00
2022-08-28T22:03:55.717Z,97666.72
2022-08-28T22:06:24.220Z,97670.75
2022-08-28T22:11:41.366Z,97662.59
2022-08-28T22:17:10.651Z,97672.69
2022-08-28T22:19:39.393Z,97671.03
2022-08-28T22:22:44.933Z,97671.59
2022-08-28T22:25:15.327Z,97672.13
2022-08-28T22:27:49.702Z,97687.13
2022-08-28T22:30:31.985Z,97688.75
2022-08-28T22:36:06.498Z,97676.72
2022-08-28T22:38:34.042Z,97685.69
2022-08-28T22:41:01.101Z,97683.19
2022-08-28T22:43:36.872Z,97691.91
2022-08-28T22:46:10.682Z,97698.69
2022-08-28T22:48:37.560Z,97689.94
2022-08-28T22:51:09.056Z,97686.38
2022-08-28T22:53:36.813Z,97683.38
2022-08-28T22:56:04.304Z,97684.72
2022-08-28T22:58:32.935Z,97686.34
2022-08-28T23:01:29.279Z,97678.38
2022-08-28T23:04:27.867Z,97691.44
2022-08-28T23:06:55.201Z,97690.38
2022-08-28T23:12:07.980Z,97687.88
2022-08-28T23:17:15.544Z,97688.38
2022-08-28T23:19:43.929Z,97686.47
2022-08-28T23:22:13.101Z,97689.19
2022-08-28T23:24:40.758Z,97689.19
2022-08-28T23:27:32.382Z,97673.63
2022-08-28T23:29:56.335Z,97679.91
2022-08-28T23:32:23.227Z,97674.22
2022-08-28T23:34:50.623Z,97678.78
2022-08-28T23:37:28.482Z,97677.69
2022-08-28T23:44:33.506Z,97679.09
2022-08-28T23:47:00.683Z,97673.31
2022-08-28T23:49:35.793Z,97676.28
2022-08-28T23:52:09.644Z,97683.09
2022-08-28T23:54:36.796Z,97679.78
2022-08-28T23:57:05.411Z,97678.97
2022-08-28T23:59:34.928Z,97677.34
